Time;durP1;ratioP1;P1;durP2;ratioP2;P2;SDS_P1;SDS_P2;PMS_P1;PMS_P2;Temp;Humidity;BMP_temperature;BMP_pressure;BME280_temperature;BME280_humidity;BME280_pressure;Samples;Min_cycle;Max_cycle;Signal;HPM_P1;HPM_P2
2021/04/17 00:02:13;;;;;;;75.95;44.60;;;205.20;1689.60;;;;;;5015902;28;20382;-75
2021/04/17 00:04:39;;;;;;;83.47;47.13;;;205.30;1664.00;;;;;;5015771;28;20371;-72
2021/04/17 00:07:08;;;;;;;115.88;60.90;;;205.20;1689.60;;;;;;5015728;28;20469;-71
2021/04/17 00:09:34;;;;;;;95.15;55.40;;;205.20;1689.60;;;;;;5015686;28;20352;-72
2021/04/17 00:12:04;;;;;;;88.68;50.70;;;205.10;1715.20;;;;;;5015219;28;20363;-73
2021/04/17 00:14:33;;;;;;;80.47;46.90;;;205.20;1689.60;;;;;;5015689;28;20434;-70
2021/04/17 00:17:00;;;;;;;80.00;48.63;;;205.00;1715.20;;;;;;5015628;28;20451;-72
2021/04/17 00:19:26;;;;;;;77.30;47.05;;;204.90;1740.80;;;;;;4998048;28;20413;-74
2021/04/17 00:21:53;;;;;;;79.45;45.53;;;204.90;1740.80;;;;;;5015477;28;20356;-71
2021/04/17 00:24:19;;;;;;;72.53;45.08;;;204.90;1740.80;;;;;;5016011;28;20355;-71
2021/04/17 00:26:45;;;;;;;71.13;45.05;;;204.90;1740.80;;;;;;4998019;28;20478;-70
2021/04/17 00:29:11;;;;;;;75.07;44.50;;;205.00;1740.80;;;;;;5014365;28;20367;-74
2021/04/17 00:31:38;;;;;;;74.50;45.47;;;204.90;1740.80;;;;;;5015330;28;20399;-75
2021/04/17 00:34:05;;;;;;;74.93;43.65;;;205.00;1715.20;;;;;;5015576;28;20497;-75
2021/04/17 00:36:32;;;;;;;76.80;45.22;;;204.90;1740.80;;;;;;5015492;28;20509;-76
2021/04/17 00:38:59;;;;;;;72.53;45.92;;;204.90;1740.80;;;;;;5015441;28;20423;-71
2021/04/17 00:41:25;;;;;;;70.90;43.97;;;204.90;1740.80;;;;;;5015347;28;20494;-75
2021/04/17 00:43:52;;;;;;;91.30;52.85;;;204.80;1740.80;;;;;;5015309;28;20455;-76
2021/04/17 00:46:19;;;;;;;81.63;51.22;;;205.00;1740.80;;;;;;5015176;28;20467;-70
2021/04/17 00:48:46;;;;;;;75.75;46.50;;;205.00;1740.80;;;;;;5015203;28;20469;-75
2021/04/17 00:51:13;;;;;;;85.05;49.92;;;205.10;1740.80;;;;;;5015500;28;20344;-76
2021/04/17 00:53:39;;;;;;;81.63;48.58;;;205.10;1766.40;;;;;;5015715;28;20056;-70
2021/04/17 00:56:07;;;;;;;85.63;49.45;;;205.10;1740.80;;;;;;5015064;28;20423;-75
2021/04/17 00:58:34;;;;;;;86.05;52.33;;;180.00;1843.20;;;;;;5015024;28;20339;-75
2021/04/17 01:01:02;;;;;;;89.75;52.33;;;179.70;1894.40;;;;;;5015164;28;20076;-75
2021/04/17 01:03:57;;;;;;;85.97;51.05;;;179.50;1894.40;;;;;;5014890;28;20442;-70
2021/04/17 01:06:44;;;;;;;85.63;49.67;;;179.60;1894.40;;;;;;5015202;28;20370;-75
2021/04/17 01:09:25;;;;;;;81.88;50.42;;;179.90;1868.80;;;;;;5015140;28;20354;-75
2021/04/17 01:12:20;;;;;;;82.28;48.58;;;180.10;1868.80;;;;;;5014809;28;20076;-75
2021/04/17 01:14:50;;;;;;;77.10;44.70;;;180.10;1843.20;;;;;;5014802;28;20463;-76
2021/04/17 01:17:17;;;;;;;69.30;40.55;;;180.10;1843.20;;;;;;5014674;28;20371;-75
2021/04/17 01:20:16;;;;;;;73.70;45.08;;;204.80;1817.60;;;;;;5014533;28;20415;-75
2021/04/17 01:23:04;;;;;;;58.90;37.75;;;204.80;1817.60;;;;;;5015090;28;20408;-70
2021/04/17 01:25:42;;;;;;;52.55;34.38;;;204.90;1766.40;;;;;;5013398;28;20482;-70
2021/04/17 01:28:09;;;;;;;53.92;34.53;;;205.10;1740.80;;;;;;5013223;28;20378;-70
2021/04/17 01:30:35;;;;;;;50.95;33.17;;;205.10;1715.20;;;;;;5014465;28;20014;-71
2021/04/17 01:33:01;;;;;;;50.42;33.80;;;205.10;1715.20;;;;;;5014127;28;20439;-70
2021/04/17 01:35:28;;;;;;;59.67;36.67;;;205.10;1715.20;;;;;;5014240;28;20359;-70
2021/04/17 01:37:54;;;;;;;57.28;35.97;;;205.20;1715.20;;;;;;5014291;28;20026;-71
2021/04/17 01:40:24;;;;;;;53.28;34.38;;;205.30;1689.60;;;;;;5014059;28;20018;-70
2021/04/17 01:42:52;;;;;;;55.10;34.38;;;205.30;1689.60;;;;;;5012941;28;20423;-71
2021/04/17 01:45:23;;;;;;;55.67;37.65;;;205.20;1715.20;;;;;;5012881;28;20370;-71
2021/04/17 01:47:52;;;;;;;55.40;34.13;;;205.30;1715.20;;;;;;5014181;28;20410;-71
2021/04/17 01:50:19;;;;;;;55.65;35.55;;;205.40;1689.60;;;;;;5014362;28;20398;-74
2021/04/17 01:52:47;;;;;;;55.63;34.58;;;205.30;1689.60;;;;;;5014007;28;20367;-75
2021/04/17 01:55:17;;;;;;;51.47;32.97;;;205.30;1715.20;;;;;;5014010;28;20352;-75
2021/04/17 01:57:44;;;;;;;47.42;32.63;;;205.30;1689.60;;;;;;5013999;28;20414;-75
2021/04/17 02:00:10;;;;;;;50.63;32.30;;;205.40;1664.00;;;;;;5012655;28;20443;-75
2021/04/17 02:02:36;;;;;;;49.42;32.70;;;205.30;1689.60;;;;;;5013996;28;20418;-74
2021/04/17 02:05:03;;;;;;;48.25;31.95;;;205.10;1740.80;;;;;;5013868;28;20387;-74
2021/04/17 02:07:29;;;;;;;48.58;31.88;;;205.30;1715.20;;;;;;5013807;28;20436;-70
2021/04/17 02:09:55;;;;;;;59.47;32.13;;;205.30;1689.60;;;;;;5013837;28;20366;-74
2021/04/17 02:12:21;;;;;;;51.30;32.78;;;205.30;1689.60;;;;;;5013832;28;20340;-75
2021/04/17 02:14:47;;;;;;;56.15;35.67;;;205.20;1715.20;;;;;;5013697;28;20366;-70
2021/04/17 02:17:39;;;;;;;51.65;33.85;;;205.20;1740.80;;;;;;5013808;28;20093;-75
2021/04/17 02:20:20;;;;;;;45.17;30.58;;;205.30;1766.40;;;;;;4989637;28;20375;-75
2021/04/17 02:22:47;;;;;;;42.63;28.40;;;205.10;1792.00;;;;;;5013765;28;20431;-70
2021/04/17 02:25:14;;;;;;;42.42;27.95;;;205.00;1792.00;;;;;;5014418;28;20362;-71
2021/04/17 02:27:41;;;;;;;41.80;27.52;;;204.90;1792.00;;;;;;5013661;28;20440;-71
2021/04/17 02:30:08;;;;;;;40.70;28.98;;;205.00;1792.00;;;;;;5013885;28;20025;-71
2021/04/17 02:32:34;;;;;;;43.85;29.10;;;205.10;1766.40;;;;;;5013443;28;20423;-71
2021/04/17 02:35:00;;;;;;;41.97;27.40;;;205.10;1766.40;;;;;;5013535;28;20347;-70
2021/04/17 02:37:26;;;;;;;45.03;28.95;;;180.10;1843.20;;;;;;5013532;28;20366;-70
2021/04/17 02:39:52;;;;;;;47.40;31.58;;;180.10;1817.60;;;;;;5013657;28;20033;-70
2021/04/17 02:42:18;;;;;;;51.08;32.35;;;179.90;1843.20;;;;;;5013464;28;20429;-72
2021/04/17 02:44:44;;;;;;;49.10;31.05;;;179.80;1868.80;;;;;;5013463;28;20018;-74
2021/04/17 02:47:11;;;;;;;48.45;30.35;;;179.90;1868.80;;;;;;5013715;28;20018;-74
2021/04/17 02:49:37;;;;;;;48.17;30.60;;;204.80;1817.60;;;;;;5013335;28;20363;-72
2021/04/17 02:52:03;;;;;;;51.38;31.15;;;180.10;1843.20;;;;;;5013774;28;20455;-70
2021/04/17 02:54:29;;;;;;;46.40;30.02;;;180.10;1843.20;;;;;;5017600;28;20418;-74
2021/04/17 02:56:56;;;;;;;44.25;30.38;;;180.10;1843.20;;;;;;5017318;28;20344;-71
2021/04/17 02:59:22;;;;;;;49.22;32.05;;;204.80;1843.20;;;;;;5017257;28;20417;-71
2021/04/17 03:01:48;;;;;;;53.83;33.88;;;204.90;1817.60;;;;;;5017027;28;20469;-70
2021/04/17 03:04:14;;;;;;;70.30;41.55;;;205.00;1817.60;;;;;;5015922;28;20024;-70
2021/04/17 03:06:40;;;;;;;72.63;43.72;;;205.10;1817.60;;;;;;5015825;28;20451;-72
2021/04/17 03:09:06;;;;;;;51.53;33.40;;;205.00;1817.60;;;;;;5017403;28;20451;-71
2021/04/17 03:11:33;;;;;;;57.03;34.70;;;205.10;1817.60;;;;;;5016948;28;20415;-75
2021/04/17 03:13:59;;;;;;;60.53;37.83;;;205.20;1792.00;;;;;;5016978;28;20434;-71
2021/04/17 03:16:26;;;;;;;66.97;38.78;;;205.20;1792.00;;;;;;5016913;28;20365;-70
2021/04/17 03:18:52;;;;;;;57.15;36.80;;;205.10;1792.00;;;;;;5015572;28;20398;-70
2021/04/17 03:21:18;;;;;;;62.58;36.13;;;205.10;1817.60;;;;;;5017008;28;20371;-70
2021/04/17 03:23:44;;;;;;;68.95;37.97;;;205.00;1817.60;;;;;;5016806;28;20429;-74
2021/04/17 03:26:10;;;;;;;59.67;37.17;;;204.90;1843.20;;;;;;5016656;28;20061;-70
2021/04/17 03:28:36;;;;;;;54.70;36.05;;;205.00;1817.60;;;;;;5016697;28;20055;-71
2021/04/17 03:31:03;;;;;;;53.53;35.60;;;205.10;1817.60;;;;;;5016371;28;20384;-77
2021/04/17 03:33:29;;;;;;;59.28;36.90;;;205.10;1817.60;;;;;;5015437;28;20367;-76
2021/04/17 03:35:55;;;;;;;52.80;34.97;;;205.00;1843.20;;;;;;5016573;28;20344;-70
2021/04/17 03:38:21;;;;;;;57.67;36.97;;;205.10;1817.60;;;;;;5016497;28;20398;-71
2021/04/17 03:40:48;;;;;;;59.13;37.08;;;205.10;1817.60;;;;;;5016471;28;20029;-75
2021/04/17 03:43:14;;;;;;;61.95;36.22;;;205.10;1817.60;;;;;;5016467;28;20367;-75
2021/04/17 03:45:40;;;;;;;60.42;37.03;;;205.00;1843.20;;;;;;5016478;28;20451;-76
2021/04/17 03:48:07;;;;;;;51.25;33.38;;;205.10;1817.60;;;;;;5016378;28;20022;-74
2021/04/17 03:50:33;;;;;;;51.22;35.08;;;205.20;1817.60;;;;;;5016323;28;20366;-75
2021/04/17 03:52:59;;;;;;;58.88;37.90;;;205.30;1817.60;;;;;;5016239;28;20381;-74
2021/04/17 03:55:26;;;;;;;67.63;40.65;;;205.30;1817.60;;;;;;5016468;28;20422;-70
2021/04/17 03:57:52;;;;;;;56.92;37.45;;;205.30;1792.00;;;;;;5016373;28;20352;-71
2021/04/17 04:00:20;;;;;;;58.33;37.22;;;205.40;1792.00;;;;;;5016330;28;20423;-71
2021/04/17 04:02:47;;;;;;;63.03;38.42;;;205.40;1817.60;;;;;;5015730;28;20482;-70
2021/04/17 04:05:14;;;;;;;61.10;36.88;;;205.40;1792.00;;;;;;5016076;28;20520;-71
2021/04/17 04:07:40;;;;;;;62.58;38.50;;;205.20;1817.60;;;;;;5015961;28;20371;-72
2021/04/17 04:10:08;;;;;;;65.78;36.92;;;205.20;1817.60;;;;;;5014730;28;20491;-75
2021/04/17 04:12:34;;;;;;;59.22;36.15;;;205.20;1817.60;;;;;;5015986;28;20017;-74
2021/04/17 04:15:01;;;;;;;62.13;37.47;;;205.30;1817.60;;;;;;5015842;28;20352;-75
2021/04/17 04:17:27;;;;;;;60.58;39.78;;;205.30;1792.00;;;;;;5015832;28;20335;-77
2021/04/17 04:19:54;;;;;;;58.28;36.78;;;205.30;1766.40;;;;;;5015699;28;20379;-71
2021/04/17 04:22:20;;;;;;;59.70;38.35;;;205.40;1766.40;;;;;;5014557;28;20382;-75
2021/04/17 04:24:46;;;;;;;57.03;36.20;;;205.40;1766.40;;;;;;5015694;28;20409;-71
2021/04/17 04:27:13;;;;;;;55.20;34.30;;;205.40;1766.40;;;;;;5015611;28;20022;-76
2021/04/17 04:29:39;;;;;;;50.35;33.45;;;205.30;1740.80;;;;;;5015593;28;20462;-72
2021/04/17 04:32:05;;;;;;;47.00;34.25;;;205.30;1766.40;;;;;;5015255;28;20391;-71
2021/04/17 04:34:31;;;;;;;53.83;35.05;;;205.30;1766.40;;;;;;5015531;28;20402;-71
2021/04/17 04:36:58;;;;;;;52.60;35.60;;;205.20;1766.40;;;;;;5015420;28;20414;-70
2021/04/17 04:39:24;;;;;;;53.28;36.20;;;205.30;1740.80;;;;;;5015332;28;20367;-74
2021/04/17 04:41:50;;;;;;;53.53;34.60;;;205.20;1766.40;;;;;;5015230;28;20348;-70
2021/04/17 04:44:16;;;;;;;50.58;35.25;;;205.20;1766.40;;;;;;5014038;28;20362;-71
2021/04/17 04:46:42;;;;;;;58.47;34.90;;;205.20;1766.40;;;;;;5015196;28;20494;-72
2021/04/17 04:49:08;;;;;;;57.72;36.63;;;205.30;1766.40;;;;;;5015218;28;20026;-74
2021/04/17 04:51:34;;;;;;;48.97;34.45;;;205.30;1740.80;;;;;;5015369;28;20533;-75
2021/04/17 04:54:01;;;;;;;66.63;40.80;;;205.30;1766.40;;;;;;5015441;28;20418;-71
2021/04/17 04:56:27;;;;;;;59.97;39.35;;;205.30;1766.40;;;;;;5015291;28;20466;-71
2021/04/17 04:58:53;;;;;;;55.45;37.70;;;205.40;1766.40;;;;;;5014943;28;20387;-72
2021/04/17 05:01:19;;;;;;;57.55;36.72;;;205.30;1766.40;;;;;;5014839;28;20463;-73
2021/04/17 05:03:45;;;;;;;58.85;39.10;;;205.30;1766.40;;;;;;5014789;28;20406;-75
2021/04/17 05:06:11;;;;;;;62.15;39.33;;;205.30;1766.40;;;;;;5014848;28;20029;-73
2021/04/17 05:08:37;;;;;;;66.70;41.03;;;205.40;1766.40;;;;;;5014910;28;20367;-73
2021/04/17 05:11:03;;;;;;;67.22;40.17;;;205.40;1740.80;;;;;;5015067;28;20032;-75
2021/04/17 05:13:29;;;;;;;57.60;38.92;;;205.40;1766.40;;;;;;5015109;28;20418;-73
2021/04/17 05:15:55;;;;;;;61.05;38.30;;;205.50;1740.80;;;;;;5013188;28;20445;-76
2021/04/17 05:18:22;;;;;;;66.57;39.85;;;205.60;1740.80;;;;;;5014446;28;20101;-76
2021/04/17 05:20:48;;;;;;;96.20;58.70;;;205.60;1740.80;;;;;;5014643;28;20370;-72
2021/04/17 05:23:14;;;;;;;78.38;50.10;;;205.70;1715.20;;;;;;5014520;28;20505;-71
2021/04/17 05:25:40;;;;;;;62.95;41.13;;;205.70;1740.80;;;;;;5014966;28;20474;-71
2021/04/17 05:28:08;;;;;;;77.75;47.97;;;230.40;1715.20;;;;;;5014563;28;20485;-76
2021/04/17 05:30:34;;;;;;;60.53;39.53;;;230.40;1715.20;;;;;;5014564;28;20030;-76
2021/04/17 05:33:00;;;;;;;61.72;40.45;;;205.60;1715.20;;;;;;5013991;28;20490;-71
2021/04/17 05:35:26;;;;;;;57.15;39.00;;;205.70;1715.20;;;;;;5014249;28;20367;-72
2021/04/17 05:37:53;;;;;;;71.18;40.75;;;205.70;1715.20;;;;;;5013017;28;20426;-73
2021/04/17 05:40:19;;;;;;;69.72;44.05;;;205.70;1715.20;;;;;;5014277;28;20025;-72
2021/04/17 05:42:46;;;;;;;66.82;44.45;;;205.50;1740.80;;;;;;5014343;28;20366;-71
2021/04/17 05:45:14;;;;;;;67.75;42.25;;;205.60;1715.20;;;;;;5014118;28;20363;-71
2021/04/17 05:47:40;;;;;;;63.40;38.15;;;205.70;1715.20;;;;;;5013936;28;20378;-74
2021/04/17 05:50:07;;;;;;;58.45;37.17;;;205.60;1740.80;;;;;;5013894;28;20418;-74
2021/04/17 05:52:33;;;;;;;60.22;37.97;;;205.70;1715.20;;;;;;5013927;28;20368;-75
2021/04/17 05:54:59;;;;;;;58.08;37.75;;;230.40;1689.60;;;;;;5014091;28;20451;-74
2021/04/17 05:57:25;;;;;;;51.85;34.90;;;230.40;1715.20;;;;;;5013762;28;20394;-74
2021/04/17 05:59:51;;;;;;;59.92;35.85;;;230.50;1664.00;;;;;;5012619;28;20455;-76
2021/04/17 06:02:19;;;;;;;52.70;33.38;;;230.50;1638.40;;;;;;5013854;28;20352;-72
2021/04/17 06:04:46;;;;;;;54.22;33.78;;;230.60;1638.40;;;;;;5013711;28;20525;-77
2021/04/17 06:07:12;;;;;;;56.95;35.50;;;230.60;1638.40;;;;;;5014031;28;20398;-75
2021/04/17 06:13:00;;;;;;;60.20;38.83;;;230.60;1638.40;;;;;;5013763;28;20437;-71
2021/04/17 06:15:26;;;;;;;63.10;39.05;;;230.60;1664.00;;;;;;5013622;28;20402;-71
2021/04/17 06:17:53;;;;;;;56.78;36.72;;;230.60;1664.00;;;;;;5013580;28;20459;-71
2021/04/17 06:20:19;;;;;;;59.83;36.95;;;230.70;1664.00;;;;;;5013390;28;20367;-71
2021/04/17 06:22:45;;;;;;;50.88;32.30;;;230.90;1612.80;;;;;;5013434;28;20430;-71
2021/04/17 06:25:11;;;;;;;52.45;29.50;;;230.80;1612.80;;;;;;5013511;28;20450;-70
2021/04/17 06:27:38;;;;;;;64.45;36.30;;;231.00;1587.20;;;;;;5013572;28;20381;-72
2021/04/17 06:30:06;;;;;;;63.28;37.00;;;231.00;1587.20;;;;;;5013472;28;20380;-76
2021/04/17 06:32:32;;;;;;;61.70;35.25;;;231.10;1587.20;;;;;;5013256;28;20402;-75
2021/04/17 06:34:58;;;;;;;50.65;32.35;;;231.20;1587.20;;;;;;5012609;28;20532;-76
2021/04/17 06:37:24;;;;;;;29.98;18.88;;;231.30;1561.60;;;;;;5013807;28;20447;-72
2021/04/17 06:39:50;;;;;;;30.55;19.50;;;256.10;1536.00;;;;;;5013443;28;20427;-72
2021/04/17 06:42:20;;;;;;;42.47;24.75;;;256.00;1433.60;;;;;;5013296;28;20386;-71
2021/04/17 06:44:47;;;;;;;26.42;19.10;;;256.10;1484.80;;;;;;4995724;28;20478;-75
2021/04/17 06:47:17;;;;;;;30.45;22.35;;;256.00;1484.80;;;;;;5014169;28;20026;-71
2021/04/17 06:49:43;;;;;;;44.10;25.95;;;256.40;1484.80;;;;;;5013827;28;20464;-72
2021/04/17 06:52:12;;;;;;;53.15;31.70;;;256.90;1433.60;;;;;;5013479;28;20371;-72
2021/04/17 06:54:38;;;;;;;56.58;31.98;;;281.60;1459.20;;;;;;5013595;28;20460;-72
2021/04/17 06:57:05;;;;;;;56.45;31.48;;;281.60;1459.20;;;;;;5013333;28;20340;-71
2021/04/17 06:59:32;;;;;;;45.42;27.45;;;281.70;1433.60;;;;;;5013328;28;20422;-72
2021/04/17 07:01:59;;;;;;;31.70;21.30;;;281.80;1433.60;;;;;;5013522;28;20383;-71
2021/04/17 07:04:27;;;;;;;55.70;38.65;;;281.90;1382.40;;;;;;5013412;28;20463;-71
2021/04/17 07:06:54;;;;;;;44.33;30.92;;;281.60;1382.40;;;;;;5013225;28;20470;-71
2021/04/17 07:09:23;;;;;;;46.45;31.58;;;281.70;1408.00;;;;;;5013219;28;20379;-77
2021/04/17 07:11:50;;;;;;;38.25;24.75;;;281.90;1382.40;;;;;;5013255;28;20417;-72
2021/04/17 07:14:18;;;;;;;37.28;21.88;;;282.10;1356.80;;;;;;5013650;28;20451;-74
2021/04/17 07:16:57;;;;;;;40.45;26.67;;;282.30;1356.80;;;;;;5013279;28;20455;-77
2021/04/17 07:19:24;;;;;;;52.55;32.92;;;282.30;1356.80;;;;;;5012928;28;20351;-73
2021/04/17 07:21:52;;;;;;;54.45;34.40;;;282.30;1331.20;;;;;;5012867;28;20426;-73
2021/04/17 07:24:27;;;;;;;36.67;25.60;;;282.50;1331.20;;;;;;5012963;28;20386;-73
2021/04/17 07:26:54;;;;;;;38.35;25.50;;;307.30;1331.20;;;;;;5012968;28;20393;-76
2021/04/17 07:29:20;;;;;;;55.67;33.83;;;307.50;1331.20;;;;;;5012945;28;20451;-76
2021/04/17 07:31:56;;;;;;;61.60;38.60;;;307.50;1280.00;;;;;;5012622;28;20088;-75
2021/04/17 07:34:24;;;;;;;50.33;32.58;;;307.80;1305.60;;;;;;5012761;28;20470;-71
2021/04/17 07:36:56;;;;;;;30.15;21.85;;;332.80;1331.20;;;;;;5013169;28;20096;-71
2021/04/17 07:39:39;;;;;;;30.40;22.35;;;332.80;1280.00;;;;;;5015373;28;20455;-72
2021/04/17 07:42:15;;;;;;;29.70;20.63;;;308.10;1228.80;;;;;;5016483;28;20503;-72
2021/04/17 07:44:46;;;;;;;27.42;19.60;;;332.80;1280.00;;;;;;5016397;28;20471;-72
2021/04/17 07:47:12;;;;;;;25.23;17.38;;;332.90;1280.00;;;;;;5016407;28;20378;-73
2021/04/17 07:49:40;;;;;;;14.13;11.73;;;333.00;1228.80;;;;;;5016692;28;20424;-75
2021/04/17 07:52:11;;;;;;;13.35;11.20;;;332.80;1228.80;;;;;;5016383;28;20371;-74
2021/04/17 07:54:57;;;;;;;14.48;12.30;;;308.10;1203.20;;;;;;5016671;28;20029;-71
2021/04/17 07:57:31;;;;;;;14.02;11.45;;;308.10;1203.20;;;;;;5016276;28;20419;-71
2021/04/17 07:59:58;;;;;;;13.68;11.23;;;332.80;1228.80;;;;;;5016504;28;20109;-76
2021/04/17 08:02:24;;;;;;;18.10;13.60;;;332.90;1280.00;;;;;;5016146;28;20448;-75
2021/04/17 08:04:51;;;;;;;19.23;14.52;;;333.10;1280.00;;;;;;5016185;28;20434;-72
2021/04/17 08:07:18;;;;;;;23.20;15.88;;;333.20;1280.00;;;;;;5016203;28;20413;-71
2021/04/17 08:09:46;;;;;;;13.88;11.23;;;333.10;1280.00;;;;;;5016080;28;20370;-72
2021/04/17 08:12:17;;;;;;;15.45;11.82;;;333.00;1228.80;;;;;;5016393;28;20406;-74
2021/04/17 08:14:43;;;;;;;31.08;20.40;;;333.00;1228.80;;;;;;5014843;28;20445;-72
2021/04/17 08:17:10;;;;;;;11.10;9.32;;;333.00;1228.80;;;;;;5016029;28;20017;-72
2021/04/17 08:19:37;;;;;;;14.05;10.25;;;333.00;1152.00;;;;;;5015949;28;20405;-73
2021/04/17 08:22:03;;;;;;;12.48;9.18;;;332.90;1152.00;;;;;;5015654;28;20386;-76
2021/04/17 08:24:30;;;;;;;10.75;9.25;;;333.00;1152.00;;;;;;5016374;28;20355;-72
2021/04/17 08:26:59;;;;;;;12.43;10.38;;;333.00;1177.60;;;;;;5016100;28;20533;-72
2021/04/17 08:29:49;;;;;;;14.93;11.68;;;333.00;1203.20;;;;;;5015744;28;20439;-77
2021/04/17 08:32:35;;;;;;;13.35;11.05;;;333.10;1203.20;;;;;;5015546;28;20552;-76
2021/04/17 08:35:01;;;;;;;14.15;11.45;;;333.00;1254.40;;;;;;5015723;28;20473;-78
2021/04/17 08:37:30;;;;;;;15.00;11.52;;;332.90;1203.20;;;;;;5015546;28;20414;-76
2021/04/17 08:39:57;;;;;;;13.20;11.70;;;332.80;1203.20;;;;;;5015461;28;20406;-76
2021/04/17 08:42:43;;;;;;;14.60;11.95;;;332.90;1228.80;;;;;;5015405;28;20459;-74
2021/04/17 08:45:19;;;;;;;13.27;11.55;;;332.90;1228.80;;;;;;5015167;28;20425;-72
2021/04/17 08:47:51;;;;;;;15.45;12.60;;;332.90;1254.40;;;;;;4997825;28;20374;-75
2021/04/17 08:50:22;;;;;;;15.50;12.43;;;332.80;1228.80;;;;;;5014543;28;20459;-71
2021/04/17 08:52:56;;;;;;;17.08;12.55;;;332.90;1280.00;;;;;;5015292;28;20387;-73
2021/04/17 08:55:22;;;;;;;16.88;12.32;;;332.90;1228.80;;;;;;5015496;28;20447;-73
2021/04/17 08:58:20;;;;;;;13.30;11.43;;;332.80;1177.60;;;;;;5015442;28;20030;-73
2021/04/17 09:00:53;;;;;;;15.98;12.55;;;332.80;1203.20;;;;;;5014984;28;20475;-75
2021/04/17 09:03:47;;;;;;;14.93;12.70;;;332.90;1203.20;;;;;;5015075;28;20475;-75
2021/04/17 09:06:25;;;;;;;15.40;12.23;;;333.00;1228.80;;;;;;4997418;28;20620;-71
2021/04/17 09:09:29;;;;;;;14.43;11.80;;;333.00;1177.60;;;;;;5015308;28;20486;-72
2021/04/17 09:12:14;;;;;;;14.50;12.02;;;332.90;1254.40;;;;;;4954871;29;20384;-71
2021/04/17 09:14:58;;;;;;;17.35;13.57;;;332.90;1254.40;;;;;;4954729;29;20461;-72
2021/04/17 09:17:33;;;;;;;20.48;15.10;;;332.90;1228.80;;;;;;4954587;29;20527;-71
2021/04/17 09:20:00;;;;;;;17.45;14.00;;;332.90;1203.20;;;;;;4954412;29;20476;-74
2021/04/17 09:22:33;;;;;;;20.02;14.45;;;332.80;1203.20;;;;;;4954394;29;20535;-72
2021/04/17 09:25:08;;;;;;;22.23;15.20;;;332.80;1203.20;;;;;;4938401;29;20503;-72
2021/04/17 09:27:36;;;;;;;18.75;15.10;;;332.80;1228.80;;;;;;4954449;29;20389;-72
2021/04/17 09:30:05;;;;;;;15.73;13.55;;;332.80;1228.80;;;;;;4954321;29;20035;-70
2021/04/17 09:32:35;;;;;;;15.68;12.98;;;332.80;1228.80;;;;;;4954009;28;20383;-72
2021/04/17 09:35:11;;;;;;;31.77;21.80;;;308.10;1203.20;;;;;;4954510;29;20473;-73
2021/04/17 09:37:38;;;;;;;25.65;17.10;;;308.10;1203.20;;;;;;4954179;29;20353;-72
2021/04/17 09:40:05;;;;;;;16.58;13.90;;;307.90;1177.60;;;;;;4954186;29;20467;-71
2021/04/17 09:42:36;;;;;;;15.68;12.90;;;307.90;1177.60;;;;;;4954175;29;20464;-72
2021/04/17 09:45:05;;;;;;;15.18;12.77;;;308.10;1203.20;;;;;;4964472;28;20435;-71
2021/04/17 09:47:31;;;;;;;15.25;12.48;;;308.00;1228.80;;;;;;5013122;28;20493;-75
2021/04/17 09:49:57;;;;;;;22.02;14.90;;;308.10;1228.80;;;;;;5014390;28;20375;-72
2021/04/17 09:52:25;;;;;;;20.38;14.48;;;308.10;1203.20;;;;;;5014509;28;20033;-71
2021/04/17 09:55:05;;;;;;;16.10;13.07;;;308.00;1228.80;;;;;;5014149;28;20377;-71
2021/04/17 09:57:32;;;;;;;15.52;13.25;;;308.00;1254.40;;;;;;5014274;28;20524;-72
2021/04/17 10:00:00;;;;;;;31.20;18.92;;;308.10;1203.20;;;;;;5014228;28;20382;-71
2021/04/17 10:02:48;;;;;;;24.38;16.00;;;308.10;1228.80;;;;;;5013743;28;20484;-73
2021/04/17 10:05:30;;;;;;;16.05;13.18;;;308.10;1203.20;;;;;;5014060;28;20359;-75
2021/04/17 10:07:57;;;;;;;21.52;14.43;;;332.80;1228.80;;;;;;5014011;28;20370;-74
2021/04/17 10:10:23;;;;;;;18.92;14.60;;;308.00;1203.20;;;;;;5014318;28;20459;-72
2021/04/17 10:12:51;;;;;;;15.45;12.07;;;308.10;1177.60;;;;;;5013932;28;20482;-75
2021/04/17 10:15:19;;;;;;;23.95;13.68;;;332.80;1228.80;;;;;;4996254;28;20022;-75
2021/04/17 10:17:48;;;;;;;16.88;12.77;;;332.80;1177.60;;;;;;5013733;28;20396;-72
2021/04/17 10:20:15;;;;;;;17.23;14.00;;;308.00;1152.00;;;;;;5013994;28;20394;-71
2021/04/17 10:22:48;;;;;;;32.35;21.58;;;332.80;1177.60;;;;;;5014120;28;20366;-72
2021/04/17 10:25:41;;;;;;;17.00;13.82;;;332.80;1228.80;;;;;;5013917;28;20358;-72
2021/04/17 10:28:15;;;;;;;17.80;13.15;;;332.90;1254.40;;;;;;5013794;28;20412;-71
2021/04/17 10:30:42;;;;;;;13.75;11.65;;;332.90;1228.80;;;;;;5014163;28;20417;-74
2021/04/17 10:33:14;;;;;;;20.60;13.10;;;333.00;1228.80;;;;;;5013473;28;20573;-71
2021/04/17 10:35:40;;;;;;;14.90;12.85;;;333.00;1228.80;;;;;;5014012;28;20370;-71
2021/04/17 10:38:06;;;;;;;15.07;12.50;;;333.10;1203.20;;;;;;5013650;28;20378;-71
2021/04/17 10:40:32;;;;;;;21.52;13.70;;;333.20;1203.20;;;;;;5013582;28;20426;-71
2021/04/17 10:43:05;;;;;;;30.42;22.05;;;333.30;1228.80;;;;;;5013625;28;20027;-71
2021/04/17 10:45:31;;;;;;;19.07;14.23;;;333.10;1177.60;;;;;;5014002;28;20470;-71
2021/04/17 10:48:14;;;;;;;14.63;12.85;;;333.10;1152.00;;;;;;5012318;28;20426;-71
2021/04/17 10:50:52;;;;;;;15.30;12.27;;;333.00;1152.00;;;;;;5013651;28;20521;-72
2021/04/17 10:53:24;;;;;;;14.73;12.52;;;333.10;1152.00;;;;;;5013428;28;20394;-74
2021/04/17 10:55:52;;;;;;;15.68;13.18;;;333.10;1126.40;;;;;;5013593;28;20527;-72
2021/04/17 10:58:26;;;;;;;14.75;12.38;;;333.20;1152.00;;;;;;5013745;28;20577;-72
2021/04/17 11:00:57;;;;;;;25.33;13.43;;;333.20;1203.20;;;;;;5013346;28;20440;-71
2021/04/17 11:03:30;;;;;;;14.77;12.18;;;333.10;1254.40;;;;;;4995856;28;20406;-71
2021/04/17 11:06:11;;;;;;;20.52;14.80;;;333.20;1203.20;;;;;;5013387;28;20463;-71
2021/04/17 11:08:37;;;;;;;17.05;10.80;;;333.10;1177.60;;;;;;5013339;28;20415;-72
2021/04/17 11:11:15;;;;;;;21.90;14.77;;;333.20;1177.60;;;;;;5013359;28;20414;-71
2021/04/17 11:13:43;;;;;;;19.30;13.80;;;333.30;1152.00;;;;;;5014643;28;20370;-75
2021/04/17 11:16:14;;;;;;;26.27;17.65;;;333.30;1126.40;;;;;;5017364;28;20433;-72
2021/04/17 11:18:44;;;;;;;25.80;17.10;;;333.30;1177.60;;;;;;5017049;28;20382;-75
2021/04/17 11:21:10;;;;;;;33.15;19.52;;;333.30;1152.00;;;;;;5017101;28;20463;-73
2021/04/17 11:24:02;;;;;;;19.70;13.23;;;333.40;1152.00;;;;;;5016807;28;20459;-71
2021/04/17 11:26:33;;;;;;;19.40;13.55;;;333.20;1152.00;;;;;;5016906;28;20432;-72
2021/04/17 11:29:03;;;;;;;18.73;14.05;;;333.20;1152.00;;;;;;5017080;28;20421;-77
2021/04/17 11:31:32;;;;;;;18.83;13.30;;;333.30;1152.00;;;;;;4999031;28;20413;-75
2021/04/17 11:34:04;;;;;;;14.05;11.85;;;333.20;1177.60;;;;;;5017078;28;20406;-76
2021/04/17 11:36:32;;;;;;;15.32;12.02;;;333.10;1152.00;;;;;;4999015;28;20075;-74
2021/04/17 11:38:59;;;;;;;26.65;16.73;;;333.30;1152.00;;;;;;5016440;28;20462;-75
2021/04/17 11:41:26;;;;;;;26.15;18.98;;;333.40;1152.00;;;;;;5016456;28;20455;-75
2021/04/17 11:43:53;;;;;;;24.83;15.63;;;333.50;1152.00;;;;;;5016522;28;20463;-71
2021/04/17 11:46:19;;;;;;;22.83;17.75;;;333.70;1152.00;;;;;;5016530;28;20377;-72
2021/04/17 11:48:52;;;;;;;18.15;12.88;;;358.40;1126.40;;;;;;5016586;28;20355;-72
2021/04/17 11:51:18;;;;;;;20.63;14.63;;;333.70;1100.80;;;;;;5016376;28;20370;-74
2021/04/17 11:53:45;;;;;;;18.00;13.93;;;358.40;1126.40;;;;;;5016482;28;20405;-72
2021/04/17 11:56:12;;;;;;;17.85;14.32;;;333.70;1152.00;;;;;;5016647;28;20351;-73
2021/04/17 11:58:38;;;;;;;18.58;13.15;;;333.70;1126.40;;;;;;5016312;28;20370;-74
2021/04/17 12:01:04;;;;;;;51.70;38.75;;;333.70;1152.00;;;;;;5016359;28;20500;-74
2021/04/17 12:03:30;;;;;;;20.98;15.85;;;333.70;1152.00;;;;;;5016310;28;20485;-72
2021/04/17 12:05:57;;;;;;;23.60;18.92;;;358.40;1126.40;;;;;;5014901;28;20515;-74
2021/04/17 12:08:24;;;;;;;16.45;14.15;;;358.50;1100.80;;;;;;5016157;28;20422;-73
2021/04/17 12:10:51;;;;;;;19.33;13.90;;;358.40;1126.40;;;;;;5015955;28;20378;-71
2021/04/17 12:13:17;;;;;;;24.27;18.63;;;358.60;1152.00;;;;;;4998391;28;20527;-72